sensor_id;sensor_type;location;lat;lon;timestamp;temperature;humidity
12761;DHT22;6444;49.742;6.114;2022-08-11T00:02:02;19.30;92.10
12761;DHT22;6444;49.742;6.114;2022-08-11T00:04:33;19.30;91.90
12761;DHT22;6444;49.742;6.114;2022-08-11T00:06:55;19.30;91.90
12761;DHT22;6444;49.742;6.114;2022-08-11T00:09:29;18.30;93.90
12761;DHT22;6444;49.742;6.114;2022-08-11T00:11:52;18.10;93.80
12761;DHT22;6444;49.742;6.114;2022-08-11T00:14:20;18.30;94.00
12761;DHT22;6444;49.742;6.114;2022-08-11T00:17:01;18.50;93.70
12761;DHT22;6444;49.742;6.114;2022-08-11T00:19:27;18.00;94.60
12761;DHT22;6444;49.742;6.114;2022-08-11T00:21:53;17.90;95.10
12761;DHT22;6444;49.742;6.114;2022-08-11T00:24:20;17.70;95.50
12761;DHT22;6444;49.742;6.114;2022-08-11T00:26:47;17.90;95.10
12761;DHT22;6444;49.742;6.114;2022-08-11T00:29:13;18.10;94.50
12761;DHT22;6444;49.742;6.114;2022-08-11T00:31:46;18.30;94.70
12761;DHT22;6444;49.742;6.114;2022-08-11T00:34:10;18.20;94.60
12761;DHT22;6444;49.742;6.114;2022-08-11T00:36:52;18.50;94.20
12761;DHT22;6444;49.742;6.114;2022-08-11T00:39:16;18.70;93.60
12761;DHT22;6444;49.742;6.114;2022-08-11T01:06:20;18.30;94.70
12761;DHT22;6444;49.742;6.114;2022-08-11T01:11:43;18.30;94.70
12761;DHT22;6444;49.742;6.114;2022-08-11T01:17:05;18.10;95.40
12761;DHT22;6444;49.742;6.114;2022-08-11T01:19:48;18.00;95.30
12761;DHT22;6444;49.742;6.114;2022-08-11T01:22:30;17.60;96.10
12761;DHT22;6444;49.742;6.114;2022-08-11T01:30:55;17.90;95.60
12761;DHT22;6444;49.742;6.114;2022-08-11T01:44:09;18.00;95.60
12761;DHT22;6444;49.742;6.114;2022-08-11T01:46:53;18.10;95.30
12761;DHT22;6444;49.742;6.114;2022-08-11T01:49:31;18.00;95.30
12761;DHT22;6444;49.742;6.114;2022-08-11T01:52:24;18.10;95.20
12761;DHT22;6444;49.742;6.114;2022-08-11T01:55:15;18.00;95.50
12761;DHT22;6444;49.742;6.114;2022-08-11T01:57:52;17.80;96.00
12761;DHT22;6444;49.742;6.114;2022-08-11T02:00:20;17.70;96.20
12761;DHT22;6444;49.742;6.114;2022-08-11T02:10:56;17.20;97.40
12761;DHT22;6444;49.742;6.114;2022-08-11T02:16:20;17.50;97.00
12761;DHT22;6444;49.742;6.114;2022-08-11T02:18:41;17.50;96.80
12761;DHT22;6444;49.742;6.114;2022-08-11T02:21:30;17.70;96.60
12761;DHT22;6444;49.742;6.114;2022-08-11T02:24:18;17.10;97.30
12761;DHT22;6444;49.742;6.114;2022-08-11T02:26:47;17.10;97.70
12761;DHT22;6444;49.742;6.114;2022-08-11T02:29:19;17.30;97.40
12761;DHT22;6444;49.742;6.114;2022-08-11T02:32:08;17.50;97.00
12761;DHT22;6444;49.742;6.114;2022-08-11T02:35:00;17.60;96.60
12761;DHT22;6444;49.742;6.114;2022-08-11T02:45:33;17.00;98.40
12761;DHT22;6444;49.742;6.114;2022-08-11T02:48:00;17.00;98.40
12761;DHT22;6444;49.742;6.114;2022-08-11T02:53:50;17.30;97.80
12761;DHT22;6444;49.742;6.114;2022-08-11T02:56:39;17.20;98.00
12761;DHT22;6444;49.742;6.114;2022-08-11T03:02:10;16.60;99.50
12761;DHT22;6444;49.742;6.114;2022-08-11T03:04:59;16.80;99.60
12761;DHT22;6444;49.742;6.114;2022-08-11T03:07:31;17.00;99.30
12761;DHT22;6444;49.742;6.114;2022-08-11T03:12:54;17.10;98.80
12761;DHT22;6444;49.742;6.114;2022-08-11T03:18:55;17.00;98.60
12761;DHT22;6444;49.742;6.114;2022-08-11T03:21:22;16.40;99.70
12761;DHT22;6444;49.742;6.114;2022-08-11T03:24:55;16.30;99.70
12761;DHT22;6444;49.742;6.114;2022-08-11T03:26:27;16.60;99.60
12761;DHT22;6444;49.742;6.114;2022-08-11T03:31:45;16.80;98.90
12761;DHT22;6444;49.742;6.114;2022-08-11T03:34:14;16.70;98.90
12761;DHT22;6444;49.742;6.114;2022-08-11T03:39:43;16.40;99.60
12761;DHT22;6444;49.742;6.114;2022-08-11T03:42:25;16.20;99.90
12761;DHT22;6444;49.742;6.114;2022-08-11T03:47:59;15.70;99.90
12761;DHT22;6444;49.742;6.114;2022-08-11T03:53:43;16.10;99.90
12761;DHT22;6444;49.742;6.114;2022-08-11T04:04:06;16.20;99.90
12761;DHT22;6444;49.742;6.114;2022-08-11T04:06:36;16.20;99.90
12761;DHT22;6444;49.742;6.114;2022-08-11T04:09:14;16.10;99.90
12761;DHT22;6444;49.742;6.114;2022-08-11T04:12:08;16.10;99.90
12761;DHT22;6444;49.742;6.114;2022-08-11T04:14:41;16.30;99.90
12761;DHT22;6444;49.742;6.114;2022-08-11T04:23:06;16.30;99.90
12761;DHT22;6444;49.742;6.114;2022-08-11T04:25:37;16.30;99.90
12761;DHT22;6444;49.742;6.114;2022-08-11T04:28:39;16.20;99.90
12761;DHT22;6444;49.742;6.114;2022-08-11T04:39:15;16.50;99.90
12761;DHT22;6444;49.742;6.114;2022-08-11T04:42:18;16.60;99.90
12761;DHT22;6444;49.742;6.114;2022-08-11T04:51:04;16.50;99.90
12761;DHT22;6444;49.742;6.114;2022-08-11T04:56:31;16.30;99.90
12761;DHT22;6444;49.742;6.114;2022-08-11T05:05:20;16.80;99.90
12761;DHT22;6444;49.742;6.114;2022-08-11T05:13:27;17.00;99.90
12761;DHT22;6444;49.742;6.114;2022-08-11T05:16:12;16.90;99.90
12761;DHT22;6444;49.742;6.114;2022-08-11T05:18:56;16.40;99.90
12761;DHT22;6444;49.742;6.114;2022-08-11T05:21:41;17.40;99.90
12761;DHT22;6444;49.742;6.114;2022-08-11T05:24:29;18.90;97.90
12761;DHT22;6444;49.742;6.114;2022-08-11T05:27:11;20.30;96.10
12761;DHT22;6444;49.742;6.114;2022-08-11T05:29:56;23.10;91.10
12761;DHT22;6444;49.742;6.114;2022-08-11T05:32:41;23.00;91.00
12761;DHT22;6444;49.742;6.114;2022-08-11T05:35:47;24.80;88.20
12761;DHT22;6444;49.742;6.114;2022-08-11T05:37:52;26.30;81.90
12761;DHT22;6444;49.742;6.114;2022-08-11T05:40:36;26.80;79.50
12761;DHT22;6444;49.742;6.114;2022-08-11T05:43:22;28.80;73.30
12761;DHT22;6444;49.742;6.114;2022-08-11T05:46:07;28.70;73.20
12761;DHT22;6444;49.742;6.114;2022-08-11T05:48:51;29.40;72.70
12761;DHT22;6444;49.742;6.114;2022-08-11T05:51:38;30.40;69.50
12761;DHT22;6444;49.742;6.114;2022-08-11T05:54:24;31.70;65.50
12761;DHT22;6444;49.742;6.114;2022-08-11T05:57:05;31.40;65.50
12761;DHT22;6444;49.742;6.114;2022-08-11T05:59:32;31.80;63.60
12761;DHT22;6444;49.742;6.114;2022-08-11T06:02:06;32.40;62.90
12761;DHT22;6444;49.742;6.114;2022-08-11T06:04:31;32.30;63.10
12761;DHT22;6444;49.742;6.114;2022-08-11T06:07:02;32.90;63.00
12761;DHT22;6444;49.742;6.114;2022-08-11T06:09:30;32.90;62.70
12761;DHT22;6444;49.742;6.114;2022-08-11T06:11:57;32.90;62.80
12761;DHT22;6444;49.742;6.114;2022-08-11T06:14:22;33.50;61.30
12761;DHT22;6444;49.742;6.114;2022-08-11T06:16:49;35.00;59.60
12761;DHT22;6444;49.742;6.114;2022-08-11T06:19:15;36.40;57.20
12761;DHT22;6444;49.742;6.114;2022-08-11T06:21:45;36.30;55.70
12761;DHT22;6444;49.742;6.114;2022-08-11T06:24:12;37.50;52.70
12761;DHT22;6444;49.742;6.114;2022-08-11T06:26:46;37.50;52.70
12761;DHT22;6444;49.742;6.114;2022-08-11T06:29:08;37.40;53.50
12761;DHT22;6444;49.742;6.114;2022-08-11T06:31:34;37.90;52.80
12761;DHT22;6444;49.742;6.114;2022-08-11T06:36:35;37.60;52.00
12761;DHT22;6444;49.742;6.114;2022-08-11T06:39:19;35.80;54.20
12761;DHT22;6444;49.742;6.114;2022-08-11T06:41:52;35.70;54.10
12761;DHT22;6444;49.742;6.114;2022-08-11T06:44:31;36.50;53.90
12761;DHT22;6444;49.742;6.114;2022-08-11T06:47:02;37.00;52.40
12761;DHT22;6444;49.742;6.114;2022-08-11T06:49:27;37.50;51.70
12761;DHT22;6444;49.742;6.114;2022-08-11T06:52:11;37.60;52.30
12761;DHT22;6444;49.742;6.114;2022-08-11T06:54:36;37.70;51.70
12761;DHT22;6444;49.742;6.114;2022-08-11T06:57:02;38.50;50.30
12761;DHT22;6444;49.742;6.114;2022-08-11T06:59:46;38.20;51.80
12761;DHT22;6444;49.742;6.114;2022-08-11T07:02:29;39.90;50.50
12761;DHT22;6444;49.742;6.114;2022-08-11T07:05:10;41.40;48.10
12761;DHT22;6444;49.742;6.114;2022-08-11T07:10:24;41.60;47.50
12761;DHT22;6444;49.742;6.114;2022-08-11T07:13:05;41.50;47.60
12761;DHT22;6444;49.742;6.114;2022-08-11T07:15:50;41.40;47.60
12761;DHT22;6444;49.742;6.114;2022-08-11T07:18:20;42.00;46.80
12761;DHT22;6444;49.742;6.114;2022-08-11T07:21:08;43.00;45.30
12761;DHT22;6444;49.742;6.114;2022-08-11T07:23:49;43.60;43.60
12761;DHT22;6444;49.742;6.114;2022-08-11T07:26:34;42.60;44.80
12761;DHT22;6444;49.742;6.114;2022-08-11T07:29:18;40.90;46.00
12761;DHT22;6444;49.742;6.114;2022-08-11T07:31:47;41.50;46.40
12761;DHT22;6444;49.742;6.114;2022-08-11T07:34:31;43.60;45.10
12761;DHT22;6444;49.742;6.114;2022-08-11T07:37:00;45.30;42.70
12761;DHT22;6444;49.742;6.114;2022-08-11T07:39:33;45.20;42.00
12761;DHT22;6444;49.742;6.114;2022-08-11T07:42:03;45.00;41.90
12761;DHT22;6444;49.742;6.114;2022-08-11T07:44:27;43.10;43.70
12761;DHT22;6444;49.742;6.114;2022-08-11T07:46:53;44.30;42.70
12761;DHT22;6444;49.742;6.114;2022-08-11T07:49:38;43.50;42.70
12761;DHT22;6444;49.742;6.114;2022-08-11T07:52:24;42.10;43.10
12761;DHT22;6444;49.742;6.114;2022-08-11T07:54:52;43.40;41.90
12761;DHT22;6444;49.742;6.114;2022-08-11T07:57:18;44.00;42.20
12761;DHT22;6444;49.742;6.114;2022-08-11T08:00:03;45.10;40.30
12761;DHT22;6444;49.742;6.114;2022-08-11T08:02:47;44.70;41.10
12761;DHT22;6444;49.742;6.114;2022-08-11T08:05:32;45.20;39.20
12761;DHT22;6444;49.742;6.114;2022-08-11T08:08:18;44.20;39.10
12761;DHT22;6444;49.742;6.114;2022-08-11T08:11:03;43.50;40.10
12761;DHT22;6444;49.742;6.114;2022-08-11T08:13:48;41.80;40.80
12761;DHT22;6444;49.742;6.114;2022-08-11T08:16:32;42.40;40.60
12761;DHT22;6444;49.742;6.114;2022-08-11T08:19:18;42.00;40.60
12761;DHT22;6444;49.742;6.114;2022-08-11T08:21:44;43.30;40.30
12761;DHT22;6444;49.742;6.114;2022-08-11T08:24:10;44.70;38.30
12761;DHT22;6444;49.742;6.114;2022-08-11T08:26:37;44.80;39.80
12761;DHT22;6444;49.742;6.114;2022-08-11T08:29:22;44.80;38.50
12761;DHT22;6444;49.742;6.114;2022-08-11T08:32:07;43.80;39.50
12761;DHT22;6444;49.742;6.114;2022-08-11T08:34:34;43.80;39.40
12761;DHT22;6444;49.742;6.114;2022-08-11T08:37:01;42.00;41.40
12761;DHT22;6444;49.742;6.114;2022-08-11T08:39:27;41.30;41.60
12761;DHT22;6444;49.742;6.114;2022-08-11T08:41:55;41.30;40.50
12761;DHT22;6444;49.742;6.114;2022-08-11T08:44:21;40.30;41.80
12761;DHT22;6444;49.742;6.114;2022-08-11T08:46:49;40.20;41.60
12761;DHT22;6444;49.742;6.114;2022-08-11T08:49:18;40.50;41.60
12761;DHT22;6444;49.742;6.114;2022-08-11T08:51:44;40.60;41.20
12761;DHT22;6444;49.742;6.114;2022-08-11T08:54:15;41.20;40.80
12761;DHT22;6444;49.742;6.114;2022-08-11T08:56:40;40.20;41.20
12761;DHT22;6444;49.742;6.114;2022-08-11T08:59:07;39.90;41.90
12761;DHT22;6444;49.742;6.114;2022-08-11T09:01:45;39.80;41.70
12761;DHT22;6444;49.742;6.114;2022-08-11T09:04:06;40.70;40.10
12761;DHT22;6444;49.742;6.114;2022-08-11T09:06:33;39.50;39.90
12761;DHT22;6444;49.742;6.114;2022-08-11T09:08:59;38.60;41.10
12761;DHT22;6444;49.742;6.114;2022-08-11T09:11:26;38.10;42.20
12761;DHT22;6444;49.742;6.114;2022-08-11T09:14:10;37.00;43.20
12761;DHT22;6444;49.742;6.114;2022-08-11T09:16:37;37.20;43.80
12761;DHT22;6444;49.742;6.114;2022-08-11T09:19:04;38.00;43.30
12761;DHT22;6444;49.742;6.114;2022-08-11T09:21:30;38.90;41.20
12761;DHT22;6444;49.742;6.114;2022-08-11T09:23:57;38.60;41.50
12761;DHT22;6444;49.742;6.114;2022-08-11T09:26:42;38.60;40.50
12761;DHT22;6444;49.742;6.114;2022-08-11T09:29:28;38.20;41.30
12761;DHT22;6444;49.742;6.114;2022-08-11T09:31:54;38.10;41.00
12761;DHT22;6444;49.742;6.114;2022-08-11T09:34:21;37.50;42.00
12761;DHT22;6444;49.742;6.114;2022-08-11T09:36:47;36.80;42.90
12761;DHT22;6444;49.742;6.114;2022-08-11T09:39:34;36.20;43.30
12761;DHT22;6444;49.742;6.114;2022-08-11T09:42:17;35.50;43.00
12761;DHT22;6444;49.742;6.114;2022-08-11T09:44:44;35.70;44.10
12761;DHT22;6444;49.742;6.114;2022-08-11T09:47:25;36.10;42.50
12761;DHT22;6444;49.742;6.114;2022-08-11T09:49:48;36.10;44.30
12761;DHT22;6444;49.742;6.114;2022-08-11T09:52:14;36.40;44.00
12761;DHT22;6444;49.742;6.114;2022-08-11T09:54:41;35.90;43.00
12761;DHT22;6444;49.742;6.114;2022-08-11T09:57:08;34.80;45.60
12761;DHT22;6444;49.742;6.114;2022-08-11T09:59:53;34.90;46.00
12761;DHT22;6444;49.742;6.114;2022-08-11T10:02:26;35.90;43.90
12761;DHT22;6444;49.742;6.114;2022-08-11T10:04:54;35.40;43.40
12761;DHT22;6444;49.742;6.114;2022-08-11T10:07:18;34.40;44.40
12761;DHT22;6444;49.742;6.114;2022-08-11T10:09:49;34.30;45.20
12761;DHT22;6444;49.742;6.114;2022-08-11T10:12:24;34.40;44.50
12761;DHT22;6444;49.742;6.114;2022-08-11T10:14:55;34.90;44.80
12761;DHT22;6444;49.742;6.114;2022-08-11T10:17:43;34.60;44.50
12761;DHT22;6444;49.742;6.114;2022-08-11T10:20:05;33.90;45.60
12761;DHT22;6444;49.742;6.114;2022-08-11T10:22:32;34.70;44.30
12761;DHT22;6444;49.742;6.114;2022-08-11T10:25:16;33.80;45.50
12761;DHT22;6444;49.742;6.114;2022-08-11T10:28:02;34.90;45.60
12761;DHT22;6444;49.742;6.114;2022-08-11T10:30:28;34.80;45.40
12761;DHT22;6444;49.742;6.114;2022-08-11T10:33:13;34.70;44.70
12761;DHT22;6444;49.742;6.114;2022-08-11T10:35:57;35.00;45.10
12761;DHT22;6444;49.742;6.114;2022-08-11T10:38:24;35.20;45.10
12761;DHT22;6444;49.742;6.114;2022-08-11T10:40:50;35.50;43.40
12761;DHT22;6444;49.742;6.114;2022-08-11T10:43:18;33.70;44.40
12761;DHT22;6444;49.742;6.114;2022-08-11T10:45:45;33.70;44.30
12761;DHT22;6444;49.742;6.114;2022-08-11T10:48:30;33.60;44.80
12761;DHT22;6444;49.742;6.114;2022-08-11T10:50:56;34.00;45.50
12761;DHT22;6444;49.742;6.114;2022-08-11T10:53:44;34.10;44.90
12761;DHT22;6444;49.742;6.114;2022-08-11T10:56:28;35.30;44.50
12761;DHT22;6444;49.742;6.114;2022-08-11T10:59:13;35.60;43.20
12761;DHT22;6444;49.742;6.114;2022-08-11T11:01:40;34.50;44.30
12761;DHT22;6444;49.742;6.114;2022-08-11T11:12:39;35.10;44.30
12761;DHT22;6444;49.742;6.114;2022-08-11T11:15:33;33.70;44.90
12761;DHT22;6444;49.742;6.114;2022-08-11T11:18:21;33.50;45.30
12761;DHT22;6444;49.742;6.114;2022-08-11T11:20:57;33.90;45.80
12761;DHT22;6444;49.742;6.114;2022-08-11T11:37:10;34.40;44.50
12761;DHT22;6444;49.742;6.114;2022-08-11T11:39:37;34.40;44.40
12761;DHT22;6444;49.742;6.114;2022-08-11T11:42:06;34.60;45.50
12761;DHT22;6444;49.742;6.114;2022-08-11T11:44:30;35.40;43.80
12761;DHT22;6444;49.742;6.114;2022-08-11T11:46:57;35.00;42.50
12761;DHT22;6444;49.742;6.114;2022-08-11T11:49:26;34.90;42.40
12761;DHT22;6444;49.742;6.114;2022-08-11T11:51:51;34.30;43.90
12761;DHT22;6444;49.742;6.114;2022-08-11T11:54:21;34.50;44.20
12761;DHT22;6444;49.742;6.114;2022-08-11T11:56:47;34.10;44.00
12761;DHT22;6444;49.742;6.114;2022-08-11T11:59:14;33.90;43.40
12761;DHT22;6444;49.742;6.114;2022-08-11T12:01:59;33.70;44.00
12761;DHT22;6444;49.742;6.114;2022-08-11T12:04:26;33.70;43.90
12761;DHT22;6444;49.742;6.114;2022-08-11T12:06:53;33.90;43.90
12761;DHT22;6444;49.742;6.114;2022-08-11T12:09:19;33.50;43.80
12761;DHT22;6444;49.742;6.114;2022-08-11T12:11:46;34.30;42.50
12761;DHT22;6444;49.742;6.114;2022-08-11T12:14:31;35.10;43.10
12761;DHT22;6444;49.742;6.114;2022-08-11T12:16:57;34.60;42.90
12761;DHT22;6444;49.742;6.114;2022-08-11T12:19:24;34.10;42.80
12761;DHT22;6444;49.742;6.114;2022-08-11T12:21:51;34.50;42.90
12761;DHT22;6444;49.742;6.114;2022-08-11T12:24:35;35.10;42.80
12761;DHT22;6444;49.742;6.114;2022-08-11T12:27:20;36.00;42.30
12761;DHT22;6444;49.742;6.114;2022-08-11T12:29:47;36.60;41.30
12761;DHT22;6444;49.742;6.114;2022-08-11T12:32:13;37.10;40.90
12761;DHT22;6444;49.742;6.114;2022-08-11T12:34:40;36.80;40.70
12761;DHT22;6444;49.742;6.114;2022-08-11T12:37:06;36.30;41.00
12761;DHT22;6444;49.742;6.114;2022-08-11T12:39:35;35.00;42.60
12761;DHT22;6444;49.742;6.114;2022-08-11T12:42:19;34.20;42.50
12761;DHT22;6444;49.742;6.114;2022-08-11T12:45:07;34.20;42.40
12761;DHT22;6444;49.742;6.114;2022-08-11T12:47:49;32.70;44.80
12761;DHT22;6444;49.742;6.114;2022-08-11T12:50:33;32.50;45.30
12761;DHT22;6444;49.742;6.114;2022-08-11T12:53:19;32.00;45.60
12761;DHT22;6444;49.742;6.114;2022-08-11T12:55:44;31.60;46.20
12761;DHT22;6444;49.742;6.114;2022-08-11T12:58:29;31.40;45.60
12761;DHT22;6444;49.742;6.114;2022-08-11T13:00:55;31.20;46.10
12761;DHT22;6444;49.742;6.114;2022-08-11T13:03:40;31.10;45.90
12761;DHT22;6444;49.742;6.114;2022-08-11T13:06:25;31.30;45.10
12761;DHT22;6444;49.742;6.114;2022-08-11T13:08:52;31.40;46.30
12761;DHT22;6444;49.742;6.114;2022-08-11T13:11:18;31.60;44.40
12761;DHT22;6444;49.742;6.114;2022-08-11T13:14:03;31.20;45.30
12761;DHT22;6444;49.742;6.114;2022-08-11T13:16:31;30.80;46.10
12761;DHT22;6444;49.742;6.114;2022-08-11T13:18:57;30.90;45.80
12761;DHT22;6444;49.742;6.114;2022-08-11T13:21:23;30.90;44.80
12761;DHT22;6444;49.742;6.114;2022-08-11T13:23:51;31.00;45.10
12761;DHT22;6444;49.742;6.114;2022-08-11T13:26:16;30.80;45.40
12761;DHT22;6444;49.742;6.114;2022-08-11T13:28:43;31.00;45.50
12761;DHT22;6444;49.742;6.114;2022-08-11T13:31:10;31.20;45.70
12761;DHT22;6444;49.742;6.114;2022-08-11T13:33:58;31.40;45.30
12761;DHT22;6444;49.742;6.114;2022-08-11T13:36:09;32.20;45.10
12761;DHT22;6444;49.742;6.114;2022-08-11T13:38:36;32.80;44.00
12761;DHT22;6444;49.742;6.114;2022-08-11T13:41:02;32.20;44.00
12761;DHT22;6444;49.742;6.114;2022-08-11T13:43:29;32.00;45.30
12761;DHT22;6444;49.742;6.114;2022-08-11T13:45:55;31.60;45.00
12761;DHT22;6444;49.742;6.114;2022-08-11T13:48:22;31.30;46.00
12761;DHT22;6444;49.742;6.114;2022-08-11T13:50:49;31.60;45.40
12761;DHT22;6444;49.742;6.114;2022-08-11T13:53:33;31.60;45.30
12761;DHT22;6444;49.742;6.114;2022-08-11T13:56:00;31.20;45.90
12761;DHT22;6444;49.742;6.114;2022-08-11T13:58:27;31.20;45.00
12761;DHT22;6444;49.742;6.114;2022-08-11T14:00:53;31.00;45.30
12761;DHT22;6444;49.742;6.114;2022-08-11T14:03:22;31.00;45.50
12761;DHT22;6444;49.742;6.114;2022-08-11T14:05:48;31.20;46.20
12761;DHT22;6444;49.742;6.114;2022-08-11T14:08:16;31.20;46.20
12761;DHT22;6444;49.742;6.114;2022-08-11T14:10:41;30.80;45.80
12761;DHT22;6444;49.742;6.114;2022-08-11T14:13:11;30.50;47.40
12761;DHT22;6444;49.742;6.114;2022-08-11T14:15:48;30.50;46.90
12761;DHT22;6444;49.742;6.114;2022-08-11T14:18:19;31.00;46.50
12761;DHT22;6444;49.742;6.114;2022-08-11T14:20:46;31.60;46.00
12761;DHT22;6444;49.742;6.114;2022-08-11T14:23:45;31.30;45.30
12761;DHT22;6444;49.742;6.114;2022-08-11T14:26:11;30.60;46.10
12761;DHT22;6444;49.742;6.114;2022-08-11T14:28:50;30.50;47.00
12761;DHT22;6444;49.742;6.114;2022-08-11T14:31:17;30.80;46.00
12761;DHT22;6444;49.742;6.114;2022-08-11T14:33:43;30.70;45.90
12761;DHT22;6444;49.742;6.114;2022-08-11T14:36:10;31.20;46.00
12761;DHT22;6444;49.742;6.114;2022-08-11T14:38:37;31.50;45.30
12761;DHT22;6444;49.742;6.114;2022-08-11T14:41:04;31.50;45.70
12761;DHT22;6444;49.742;6.114;2022-08-11T14:43:49;31.40;45.60
12761;DHT22;6444;49.742;6.114;2022-08-11T14:46:33;31.60;45.60
12761;DHT22;6444;49.742;6.114;2022-08-11T14:49:18;31.60;46.10
12761;DHT22;6444;49.742;6.114;2022-08-11T14:51:45;31.50;46.00
12761;DHT22;6444;49.742;6.114;2022-08-11T14:54:11;32.20;45.30
12761;DHT22;6444;49.742;6.114;2022-08-11T14:56:56;31.70;45.00
12761;DHT22;6444;49.742;6.114;2022-08-11T14:59:23;30.90;46.00
12761;DHT22;6444;49.742;6.114;2022-08-11T15:01:50;31.10;46.60
12761;DHT22;6444;49.742;6.114;2022-08-11T15:04:36;31.10;46.60
12761;DHT22;6444;49.742;6.114;2022-08-11T15:07:02;31.10;46.10
12761;DHT22;6444;49.742;6.114;2022-08-11T15:09:29;31.20;46.60
12761;DHT22;6444;49.742;6.114;2022-08-11T15:11:55;31.20;46.10
12761;DHT22;6444;49.742;6.114;2022-08-11T15:14:36;31.10;46.80
12761;DHT22;6444;49.742;6.114;2022-08-11T15:17:21;30.70;46.90
12761;DHT22;6444;49.742;6.114;2022-08-11T15:19:48;30.50;47.00
12761;DHT22;6444;49.742;6.114;2022-08-11T15:22:32;30.40;47.20
12761;DHT22;6444;49.742;6.114;2022-08-11T15:25:18;30.90;46.60
12761;DHT22;6444;49.742;6.114;2022-08-11T15:27:45;30.90;46.50
12761;DHT22;6444;49.742;6.114;2022-08-11T15:30:29;30.90;47.70
12761;DHT22;6444;49.742;6.114;2022-08-11T15:33:14;31.00;46.60
12761;DHT22;6444;49.742;6.114;2022-08-11T15:35:59;31.00;47.40
12761;DHT22;6444;49.742;6.114;2022-08-11T15:38:48;31.00;46.70
12761;DHT22;6444;49.742;6.114;2022-08-11T15:41:11;31.10;47.00
12761;DHT22;6444;49.742;6.114;2022-08-11T15:43:55;31.20;46.40
12761;DHT22;6444;49.742;6.114;2022-08-11T15:46:49;31.20;46.10
12761;DHT22;6444;49.742;6.114;2022-08-11T15:49:23;31.30;46.40
12761;DHT22;6444;49.742;6.114;2022-08-11T15:51:49;31.80;46.10
12761;DHT22;6444;49.742;6.114;2022-08-11T15:54:18;31.70;46.20
12761;DHT22;6444;49.742;6.114;2022-08-11T15:56:47;30.70;47.90
12761;DHT22;6444;49.742;6.114;2022-08-11T15:59:13;30.60;47.80
12761;DHT22;6444;49.742;6.114;2022-08-11T16:01:57;30.70;47.40
12761;DHT22;6444;49.742;6.114;2022-08-11T16:04:41;30.80;47.40
12761;DHT22;6444;49.742;6.114;2022-08-11T16:07:30;30.70;47.40
12761;DHT22;6444;49.742;6.114;2022-08-11T16:09:47;30.70;47.70
12761;DHT22;6444;49.742;6.114;2022-08-11T16:12:12;30.90;47.30
12761;DHT22;6444;49.742;6.114;2022-08-11T16:14:38;31.00;47.10
12761;DHT22;6444;49.742;6.114;2022-08-11T16:17:23;30.80;47.70
12761;DHT22;6444;49.742;6.114;2022-08-11T16:19:48;31.00;47.10
12761;DHT22;6444;49.742;6.114;2022-08-11T16:22:15;30.90;47.80
12761;DHT22;6444;49.742;6.114;2022-08-11T16:24:43;30.70;48.10
12761;DHT22;6444;49.742;6.114;2022-08-11T16:27:11;30.90;47.40
12761;DHT22;6444;49.742;6.114;2022-08-11T16:29:39;31.00;47.20
12761;DHT22;6444;49.742;6.114;2022-08-11T16:32:04;30.70;47.70
12761;DHT22;6444;49.742;6.114;2022-08-11T16:34:54;30.60;47.90
12761;DHT22;6444;49.742;6.114;2022-08-11T16:37:37;30.70;47.60
12761;DHT22;6444;49.742;6.114;2022-08-11T16:40:22;30.70;47.50
12761;DHT22;6444;49.742;6.114;2022-08-11T16:42:49;31.00;47.90
12761;DHT22;6444;49.742;6.114;2022-08-11T16:45:34;30.80;47.60
12761;DHT22;6444;49.742;6.114;2022-08-11T16:48:18;30.80;47.60
12761;DHT22;6444;49.742;6.114;2022-08-11T16:50:45;30.60;47.50
12761;DHT22;6444;49.742;6.114;2022-08-11T16:53:12;30.40;48.20
12761;DHT22;6444;49.742;6.114;2022-08-11T16:55:38;30.60;47.60
12761;DHT22;6444;49.742;6.114;2022-08-11T16:58:05;30.80;48.20
12761;DHT22;6444;49.742;6.114;2022-08-11T17:00:50;30.90;47.40
12761;DHT22;6444;49.742;6.114;2022-08-11T17:03:17;30.90;47.80
12761;DHT22;6444;49.742;6.114;2022-08-11T17:06:01;30.90;47.60
12761;DHT22;6444;49.742;6.114;2022-08-11T17:08:46;31.00;47.40
12761;DHT22;6444;49.742;6.114;2022-08-11T17:11:30;30.80;47.40
12761;DHT22;6444;49.742;6.114;2022-08-11T17:14:15;30.70;47.60
12761;DHT22;6444;49.742;6.114;2022-08-11T17:16:41;30.70;47.60
12761;DHT22;6444;49.742;6.114;2022-08-11T17:19:31;30.60;48.20
12761;DHT22;6444;49.742;6.114;2022-08-11T17:21:42;30.90;47.90
12761;DHT22;6444;49.742;6.114;2022-08-11T17:24:26;31.50;48.00
12761;DHT22;6444;49.742;6.114;2022-08-11T17:26:54;31.40;48.20
12761;DHT22;6444;49.742;6.114;2022-08-11T17:30:03;31.20;48.40
12761;DHT22;6444;49.742;6.114;2022-08-11T17:31:49;31.00;48.30
12761;DHT22;6444;49.742;6.114;2022-08-11T17:34:34;30.70;48.20
12761;DHT22;6444;49.742;6.114;2022-08-11T17:37:20;30.80;48.20
12761;DHT22;6444;49.742;6.114;2022-08-11T17:39:46;30.80;48.10
12761;DHT22;6444;49.742;6.114;2022-08-11T17:42:13;31.00;48.00
12761;DHT22;6444;49.742;6.114;2022-08-11T17:44:58;31.20;47.50
12761;DHT22;6444;49.742;6.114;2022-08-11T17:47:43;30.90;48.10
12761;DHT22;6444;49.742;6.114;2022-08-11T17:50:29;30.80;48.00
12761;DHT22;6444;49.742;6.114;2022-08-11T17:52:55;30.80;47.90
12761;DHT22;6444;49.742;6.114;2022-08-11T17:55:41;30.30;49.00
12761;DHT22;6444;49.742;6.114;2022-08-11T17:58:26;30.50;48.80
12761;DHT22;6444;49.742;6.114;2022-08-11T18:01:11;30.90;48.50
12761;DHT22;6444;49.742;6.114;2022-08-11T18:03:39;30.90;48.50
12761;DHT22;6444;49.742;6.114;2022-08-11T18:06:05;30.80;48.80
12761;DHT22;6444;49.742;6.114;2022-08-11T18:08:31;30.50;49.00
12761;DHT22;6444;49.742;6.114;2022-08-11T18:11:16;30.70;49.10
12761;DHT22;6444;49.742;6.114;2022-08-11T18:14:03;30.60;49.10
12761;DHT22;6444;49.742;6.114;2022-08-11T18:16:47;30.30;49.70
12761;DHT22;6444;49.742;6.114;2022-08-11T18:19:32;30.20;49.60
12761;DHT22;6444;49.742;6.114;2022-08-11T18:22:20;30.40;49.90
12761;DHT22;6444;49.742;6.114;2022-08-11T18:25:09;30.40;49.90
12761;DHT22;6444;49.742;6.114;2022-08-11T18:27:53;30.40;49.40
12761;DHT22;6444;49.742;6.114;2022-08-11T18:30:37;30.20;50.50
12761;DHT22;6444;49.742;6.114;2022-08-11T18:33:23;30.10;50.30
12761;DHT22;6444;49.742;6.114;2022-08-11T18:36:09;29.90;52.60
12761;DHT22;6444;49.742;6.114;2022-08-11T18:38:52;29.90;52.60
12761;DHT22;6444;49.742;6.114;2022-08-11T18:41:38;29.70;55.50
12761;DHT22;6444;49.742;6.114;2022-08-11T18:44:24;29.70;55.50
12761;DHT22;6444;49.742;6.114;2022-08-11T18:47:09;29.50;56.60
12761;DHT22;6444;49.742;6.114;2022-08-11T18:49:52;28.90;58.50
12761;DHT22;6444;49.742;6.114;2022-08-11T18:52:38;28.20;60.50
12761;DHT22;6444;49.742;6.114;2022-08-11T18:55:22;27.30;62.70
12761;DHT22;6444;49.742;6.114;2022-08-11T18:58:07;27.10;63.80
12761;DHT22;6444;49.742;6.114;2022-08-11T19:00:53;26.60;64.90
12761;DHT22;6444;49.742;6.114;2022-08-11T19:03:36;26.30;66.50
12761;DHT22;6444;49.742;6.114;2022-08-11T19:06:21;25.50;68.80
12761;DHT22;6444;49.742;6.114;2022-08-11T19:09:07;25.40;68.70
12761;DHT22;6444;49.742;6.114;2022-08-11T19:11:51;25.30;69.30
12761;DHT22;6444;49.742;6.114;2022-08-11T19:14:36;25.10;69.50